Sipesville, Pennsylvania
Current Conditions -  °F | °C
As of 4:54 PM on Friday 24 Oct 2014 (Local Time) from KJST Reporting Station
Clear Clear  
Wind Chill: 53°   Ceiling: Unl
Heat Index: 53°   Visibility: 10mi
Dew Point: 37°   Wind: 12mph
Humidity: 55%   Direction: 290°WNW
Pressure: 29.98"   Gusts: NA
Location:  40.1°N, 79.09°W
Report Text: KJST 242054Z AUTO 29010KT 10SM CLR 12/03 A2998 RMK AO2 SLP159 T01170028 56007
Loading
Personal Weather Stations






























Interactive Weather Map
Tropical Storm Tracking
New forecast layout! Learn more

10-Day Weather Forecast

Advertisements
Track Severe Weather on mobile